Indianapolis, Indiana
Traffic Map
Current Weather Conditions
Indianapolis, Indiana
Broken Clouds
Broken Clouds
19°
Feels Like: 19°
Wind Chill: 19° Ceiling: 25000
Heat Index: 19° Visibility: 10mi
Dew Point: 15° Wind: 5mph
Humidity: 76% Direction: 290° (WNW)
Pressure: 30.03in Gusts: 0mph
Raw Report DataKIND 300754Z 29004KT 10SM BKN250 19/15 A3003 RMK AO2 SLP163 T01940150
Traffic Incident Summary
Active as of:
Severity:
Category:
InformationThere was an issue retrieving the traffic information for this location. Please try a different location or try again shortly.
Advertisements
Track Severe Weather on mobile